Time;durP1;ratioP1;P1;durP2;ratioP2;P2;SDS_P1;SDS_P2;PMS_P1;PMS_P2;Temp;Humidity;BMP_temperature;BMP_pressure;BME280_temperature;BME280_humidity;BME280_pressure;Samples;Min_cycle;Max_cycle;Signal;HPM_P1;HPM_P2
2023/01/19 00:01:43;;;;;;;17.50;13.10;;;;;;;0.18;100.00;99974.72;5049388;28;20025;-64
2023/01/19 00:04:08;;;;;;;16.97;13.43;;;;;;;0.16;100.00;99969.53;5054835;28;20024;-64
2023/01/19 00:06:33;;;;;;;16.77;13.13;;;;;;;0.18;100.00;99967.09;5049212;28;20115;-64
2023/01/19 00:08:59;;;;;;;17.43;13.63;;;;;;;0.17;100.00;99968.75;5053147;28;20024;-64
2023/01/19 00:11:24;;;;;;;18.83;14.40;;;;;;;0.17;100.00;99972.94;5050244;28;20088;-64
2023/01/19 00:13:50;;;;;;;15.50;13.50;;;;;;;0.17;100.00;99968.75;5049106;28;20052;-64
2023/01/19 00:16:17;;;;;;;18.67;14.40;;;;;;;0.15;100.00;99970.31;5048125;28;20032;-64
2023/01/19 00:18:46;;;;;;;19.63;14.40;;;;;;;0.15;100.00;99974.53;5049049;28;20039;-63
2023/01/19 00:21:13;;;;;;;15.60;13.77;;;;;;;0.14;100.00;99981.31;5048120;28;20021;-64
2023/01/19 00:23:39;;;;;;;15.50;13.30;;;;;;;0.14;100.00;99982.97;5061856;28;20043;-64
2023/01/19 00:26:05;;;;;;;16.00;13.73;;;;;;;0.16;100.00;99982.28;5047952;28;20029;-64
2023/01/19 00:28:30;;;;;;;20.57;14.30;;;;;;;0.19;100.00;99984.13;5048678;28;20108;-64
2023/01/19 00:30:55;;;;;;;16.53;13.60;;;;;;;0.18;100.00;99980.69;5048477;28;20021;-64
2023/01/19 00:33:21;;;;;;;14.77;13.27;;;;;;;0.17;100.00;99984.03;5048387;28;20032;-64
2023/01/19 00:35:50;;;;;;;16.70;14.17;;;;;;;0.17;100.00;99999.31;5059922;28;20389;-64
2023/01/19 00:38:15;;;;;;;17.90;13.97;;;;;;;0.19;100.00;100001.97;5049051;28;20100;-65
2023/01/19 00:40:41;;;;;;;18.50;14.90;;;;;;;0.20;100.00;100004.59;5047818;28;20111;-65
2023/01/19 00:43:06;;;;;;;15.27;13.07;;;;;;;0.22;100.00;100008.13;5048620;28;20036;-63
2023/01/19 00:45:32;;;;;;;14.93;12.10;;;;;;;0.21;100.00;100003.84;5048878;28;20488;-64
2023/01/19 00:47:57;;;;;;;17.23;13.30;;;;;;;0.22;100.00;99997.03;5049004;28;20096;-64
2023/01/19 00:50:25;;;;;;;17.20;14.23;;;;;;;0.21;100.00;99996.19;5049323;28;20025;-64
2023/01/19 00:52:52;;;;;;;17.47;12.97;;;;;;;0.26;100.00;99993.00;5048375;28;20017;-64
2023/01/19 00:55:17;;;;;;;15.13;13.50;;;;;;;0.23;100.00;99988.63;5048317;28;20027;-64
2023/01/19 00:57:43;;;;;;;18.40;13.33;;;;;;;0.23;100.00;99988.63;5048332;28;20037;-64
2023/01/19 01:00:12;;;;;;;16.73;13.77;;;;;;;0.22;100.00;99977.53;5048142;28;20033;-64
2023/01/19 01:02:39;;;;;;;16.90;13.07;;;;;;;0.23;100.00;99981.84;5047890;28;20025;-64
2023/01/19 01:05:05;;;;;;;17.23;13.03;;;;;;;0.21;100.00;99980.91;5047769;28;20055;-64
2023/01/19 01:07:39;;;;;;;16.47;12.17;;;;;;;0.22;100.00;99986.84;5047874;28;20111;-64
2023/01/19 01:10:10;;;;;;;14.37;12.87;;;;;;;0.17;100.00;99989.13;5055984;28;20090;-64
2023/01/19 01:12:36;;;;;;;15.70;13.05;;;;;;;0.16;100.00;99978.84;5048613;28;20048;-64
2023/01/19 01:15:02;;;;;;;18.03;13.53;;;;;;;0.15;100.00;99983.06;5048135;28;20438;-64
2023/01/19 01:17:27;;;;;;;18.90;13.70;;;;;;;0.17;100.00;99985.69;5048083;28;20112;-64
2023/01/19 01:19:52;;;;;;;15.83;13.23;;;;;;;0.14;100.00;99996.59;5047315;28;20029;-64
2023/01/19 01:22:18;;;;;;;17.97;13.80;;;;;;;0.14;100.00;99993.16;5047199;28;20025;-64
2023/01/19 01:24:43;;;;;;;17.67;14.03;;;;;;;0.14;100.00;99988.97;5048261;28;20017;-64
2023/01/19 01:27:08;;;;;;;19.87;13.63;;;;;;;0.16;100.00;99991.59;5066296;28;20507;-64
2023/01/19 01:29:34;;;;;;;18.03;13.50;;;;;;;0.16;100.00;100000.13;5051813;28;20424;-65
2023/01/19 01:32:00;;;;;;;17.73;13.20;;;;;;;0.17;100.00;100004.44;5047345;28;20017;-65
2023/01/19 01:34:26;;;;;;;13.27;11.87;;;;;;;0.18;100.00;100000.22;5047683;28;20032;-65
2023/01/19 01:36:51;;;;;;;14.90;12.50;;;;;;;0.19;100.00;100002.84;5048509;28;20028;-65
2023/01/19 01:39:17;;;;;;;14.47;12.13;;;;;;;0.21;100.00;100001.28;5047670;28;20317;-65
2023/01/19 01:41:42;;;;;;;17.73;12.83;;;;;;;0.22;100.00;99990.28;5047859;28;20044;-65
2023/01/19 01:44:48;;;;;;;15.10;12.07;;;;;;;0.25;100.00;99991.25;5054342;28;20433;-62
2023/01/19 01:47:19;;;;;;;13.23;11.80;;;;;;;0.26;100.00;100003.22;5051707;28;20049;-62
2023/01/19 01:49:45;;;;;;;;;;;;;;;0.27;100.00;100003.28;5047177;28;20017;-65
2023/01/19 01:52:14;;;;;;;15.57;12.73;;;;;;;0.28;100.00;100006.72;5047295;28;19916;-65
2023/01/19 01:54:41;;;;;;;15.87;11.67;;;;;;;0.29;100.00;100009.38;5053731;28;20029;-64
2023/01/19 01:57:11;;;;;;;14.03;11.33;;;;;;;0.30;100.00;100000.06;5047388;28;20021;-65
2023/01/19 01:59:40;;;;;;;15.53;11.10;;;;;;;0.32;100.00;100011.25;5045115;28;20078;-64
2023/01/19 02:04:59;;;;;;;14.97;10.73;;;;;;;0.27;100.00;100015.19;5046935;28;20039;-65
2023/01/19 02:13:20;;;;;;;15.23;10.83;;;;;;;0.08;100.00;100016.59;5054222;28;20124;-65
2023/01/19 02:16:12;;;;;;;13.20;10.53;;;;;;;0.00;100.00;100016.16;5046657;28;20032;-64
2023/01/19 02:18:39;;;;;;;14.50;10.33;;;;;;;-0.09;100.00;100026.63;5047248;28;20551;-64
2023/01/19 02:21:09;;;;;;;15.57;10.70;;;;;;;-0.18;100.00;100018.44;5046641;28;20016;-64
2023/01/19 02:23:43;;;;;;;14.90;10.85;;;;;;;-0.25;100.00;100027.31;5046737;28;20032;-64
2023/01/19 02:26:12;;;;;;;15.17;10.90;;;;;;;-0.33;100.00;100026.88;5047315;28;20028;-64
2023/01/19 02:28:42;;;;;;;14.63;10.37;;;;;;;-0.35;100.00;100027.53;5045589;28;20052;-64
2023/01/19 02:31:07;;;;;;;14.93;10.70;;;;;;;-0.38;100.00;100033.34;5048188;28;20040;-64
2023/01/19 02:33:32;;;;;;;16.07;11.50;;;;;;;-0.40;100.00;100032.34;5047542;28;20016;-64
2023/01/19 02:35:59;;;;;;;16.20;10.57;;;;;;;-0.43;100.00;100030.47;5047299;28;20469;-64
2023/01/19 02:38:27;;;;;;;17.00;11.70;;;;;;;-0.45;100.00;100037.13;5048096;28;20154;-64
2023/01/19 02:40:56;;;;;;;17.70;11.63;;;;;;;-0.47;100.00;100035.28;5046218;28;20052;-64
2023/01/19 02:43:23;;;;;;;17.40;12.43;;;;;;;-0.47;100.00;100032.75;5046821;28;20483;-64
2023/01/19 02:45:49;;;;;;;15.23;12.67;;;;;;;-0.47;100.00;100035.28;5051208;28;20056;-64
2023/01/19 02:48:17;;;;;;;18.03;12.90;;;;;;;-0.50;100.00;100031.75;5050632;28;20461;-64
2023/01/19 02:50:46;;;;;;;19.43;13.60;;;;;;;-0.51;100.00;100042.75;5050891;28;20049;-64
2023/01/19 02:53:30;;;;;;;17.60;12.83;;;;;;;-0.54;100.00;100037.44;5051570;28;20036;-64
2023/01/19 02:56:17;;;;;;;17.83;13.30;;;;;;;-0.56;100.00;100044.13;5051131;28;20112;-64
2023/01/19 02:59:03;;;;;;;19.10;13.37;;;;;;;-0.59;100.00;100049.00;5046940;28;20119;-64
2023/01/19 03:01:50;;;;;;;16.63;12.93;;;;;;;-0.58;100.00;100040.59;5050796;28;20058;-64
2023/01/19 03:04:39;;;;;;;15.20;13.40;;;;;;;-0.64;100.00;100042.72;5054220;28;20028;-64
2023/01/19 03:07:33;;;;;;;15.97;12.97;;;;;;;-0.66;100.00;100049.38;5064261;28;20060;-64
2023/01/19 03:10:19;;;;;;;15.40;13.03;;;;;;;-0.67;100.00;100051.06;5056712;28;20528;-64
2023/01/19 03:12:51;;;;;;;17.67;13.53;;;;;;;-0.67;100.00;100052.72;5049552;28;20079;-63
2023/01/19 03:15:22;;;;;;;17.10;14.10;;;;;;;-0.66;100.00;100057.00;5050921;28;20017;-64
2023/01/19 03:17:50;;;;;;;15.90;14.30;;;;;;;-0.66;100.00;100062.09;5055829;28;20036;-64
2023/01/19 03:20:23;;;;;;;16.70;14.37;;;;;;;-0.66;100.00;100067.19;5052256;28;20037;-64
2023/01/19 03:22:54;;;;;;;17.80;15.43;;;;;;;-0.66;100.00;100057.91;5050554;28;20044;-64
2023/01/19 03:25:22;;;;;;;17.67;15.80;;;;;;;-0.66;100.00;100062.09;5049998;28;20111;-64
2023/01/19 03:27:50;;;;;;;18.77;16.17;;;;;;;-0.67;100.00;100055.25;5050272;28;20531;-65
2023/01/19 03:30:22;;;;;;;18.30;16.23;;;;;;;-0.67;100.00;100062.88;5051862;28;20029;-64
2023/01/19 03:32:55;;;;;;;18.60;16.47;;;;;;;-0.66;100.00;100067.19;5049783;28;20024;-64
2023/01/19 03:35:24;;;;;;;18.50;16.60;;;;;;;-0.68;100.00;100071.28;5049262;28;20021;-65
2023/01/19 03:37:53;;;;;;;18.63;16.73;;;;;;;-0.70;100.00;100070.34;5050481;28;20024;-64
2023/01/19 03:40:18;;;;;;;19.23;15.80;;;;;;;-0.70;100.00;100068.66;5050035;28;20017;-64
2023/01/19 03:42:44;;;;;;;17.57;15.20;;;;;;;-0.71;100.00;100083.81;5049327;28;20025;-64
2023/01/19 03:45:11;;;;;;;17.23;15.43;;;;;;;-0.77;100.00;100085.19;5053704;28;20035;-64
2023/01/19 03:47:37;;;;;;;17.53;15.63;;;;;;;-0.79;100.00;100090.97;5056791;28;20032;-64
2023/01/19 03:50:08;;;;;;;16.50;14.80;;;;;;;-0.81;100.00;100077.25;5048875;28;20017;-65
2023/01/19 03:52:33;;;;;;;16.60;14.90;;;;;;;-0.83;100.00;100082.25;5050037;28;20452;-64
2023/01/19 03:55:04;;;;;;;15.53;13.87;;;;;;;-0.87;100.00;100082.81;5055554;28;20052;-64
2023/01/19 03:57:30;;;;;;;17.48;14.65;;;;;;;-0.89;100.00;100090.38;5053945;28;20610;-64
2023/01/19 03:59:55;;;;;;;14.97;13.37;;;;;;;-0.88;100.00;100096.34;5049269;28;20067;-64
2023/01/19 04:02:21;;;;;;;14.87;13.27;;;;;;;-0.89;100.00;100099.66;5049881;28;20025;-64
2023/01/19 04:04:47;;;;;;;15.33;13.60;;;;;;;-0.88;100.00;100111.59;5049619;28;20027;-64
2023/01/19 04:07:12;;;;;;;15.67;14.07;;;;;;;-0.88;100.00;100120.09;5048338;28;20028;-64
2023/01/19 04:09:37;;;;;;;14.67;13.13;;;;;;;-0.85;100.00;100124.53;5055349;28;20025;-64
2023/01/19 04:12:03;;;;;;;13.90;12.60;;;;;;;-0.85;100.00;100111.81;5057872;28;20036;-64
2023/01/19 04:14:28;;;;;;;13.27;11.97;;;;;;;-0.84;100.00;100126.28;5049497;28;20040;-64
2023/01/19 04:16:54;;;;;;;12.10;10.90;;;;;;;-0.86;100.00;100125.28;5048724;28;20104;-64
2023/01/19 04:19:19;;;;;;;11.87;10.67;;;;;;;-0.86;100.00;100126.19;5048473;28;20028;-64
2023/01/19 04:21:47;;;;;;;11.47;10.37;;;;;;;-0.85;100.00;100132.16;5049381;28;20017;-64
2023/01/19 04:24:12;;;;;;;10.60;9.30;;;;;;;-0.85;100.00;100127.06;5049355;28;20033;-64
2023/01/19 04:26:37;;;;;;;9.83;8.57;;;;;;;-0.83;100.00;100144.97;5049689;28;20876;-64
2023/01/19 04:29:03;;;;;;;8.67;7.87;;;;;;;-0.84;100.00;100144.09;5049344;28;20088;-64
2023/01/19 04:31:28;;;;;;;9.27;8.37;;;;;;;-0.85;100.00;100143.19;5055895;28;20025;-64
2023/01/19 04:33:54;;;;;;;8.90;8.00;;;;;;;-0.85;100.00;100147.44;5048408;28;20704;-64
2023/01/19 04:36:20;;;;;;;9.33;8.53;;;;;;;-0.85;100.00;100149.97;5048772;28;20056;-64
2023/01/19 04:38:47;;;;;;;7.77;7.07;;;;;;;-0.85;100.00;100152.50;5049098;28;20508;-64
2023/01/19 04:41:12;;;;;;;7.87;7.17;;;;;;;-0.87;100.00;100152.41;5049491;28;20037;-64
2023/01/19 04:43:38;;;;;;;6.50;5.93;;;;;;;-0.87;100.00;100164.25;5048189;28;20619;-64
2023/01/19 04:46:03;;;;;;;6.80;6.20;;;;;;;-0.87;100.00;100156.63;5049822;28;20023;-64
2023/01/19 04:48:28;;;;;;;5.90;5.40;;;;;;;-0.88;100.00;100162.50;5048453;28;20036;-64
2023/01/19 04:50:54;;;;;;;5.37;4.87;;;;;;;-0.88;100.00;100167.59;5048191;28;20045;-64
2023/01/19 04:53:19;;;;;;;4.93;4.53;;;;;;;-0.88;100.00;100162.50;5048364;28;20515;-64
2023/01/19 04:55:45;;;;;;;4.27;3.87;;;;;;;-0.88;100.00;100157.41;5048031;28;20112;-64
2023/01/19 04:58:11;;;;;;;4.40;3.93;;;;;;;-0.89;100.00;100146.34;5048913;28;20036;-64
2023/01/19 05:00:36;;;;;;;5.03;4.53;;;;;;;-0.89;100.00;100136.16;5048020;28;20454;-64
2023/01/19 05:03:02;;;;;;;4.23;3.87;;;;;;;-0.91;100.00;100127.53;5048071;28;20496;-65
2023/01/19 05:05:28;;;;;;;3.87;3.50;;;;;;;-0.97;100.00;100107.66;5050227;28;20031;-65
2023/01/19 05:07:53;;;;;;;4.10;3.70;;;;;;;-0.98;100.00;100094.81;5048125;28;20023;-64
2023/01/19 05:10:19;;;;;;;4.20;3.80;;;;;;;-0.99;100.00;100110.88;5058800;28;20058;-64
2023/01/19 05:12:44;;;;;;;5.17;4.77;;;;;;;-1.00;100.00;100110.00;5048502;28;20135;-64
2023/01/19 05:15:10;;;;;;;5.23;4.73;;;;;;;-1.01;100.00;100095.50;5047881;28;20033;-65
2023/01/19 05:17:36;;;;;;;6.90;5.87;;;;;;;-1.02;100.00;100098.81;5047690;28;20401;-65
2023/01/19 05:20:03;;;;;;;7.10;6.40;;;;;;;-1.05;100.00;100093.53;5047897;28;20032;-64
2023/01/19 05:22:28;;;;;;;6.40;5.87;;;;;;;-1.03;100.00;100086.00;5047840;28;20130;-64
2023/01/19 05:24:53;;;;;;;7.30;6.60;;;;;;;-1.03;100.00;100086.91;5048467;28;20107;-64
2023/01/19 05:27:19;;;;;;;7.43;6.40;;;;;;;-1.00;100.00;100091.28;5048593;28;20032;-64
2023/01/19 05:29:44;;;;;;;7.97;6.40;;;;;;;-1.02;100.00;100093.75;5047721;28;20021;-64
2023/01/19 05:32:09;;;;;;;6.67;5.93;;;;;;;-1.02;100.00;100098.81;5046967;28;20048;-64
2023/01/19 05:34:34;;;;;;;7.50;6.20;;;;;;;-1.02;100.00;100101.38;5048162;28;20582;-64
2023/01/19 05:37:00;;;;;;;8.73;7.20;;;;;;;-1.02;100.00;100114.09;5047392;28;20025;-64
2023/01/19 05:39:25;;;;;;;8.17;7.27;;;;;;;-1.01;100.00;100115.84;5055138;28;20078;-64
2023/01/19 05:41:51;;;;;;;10.47;9.37;;;;;;;-1.02;100.00;100124.28;5051186;28;20445;-64
2023/01/19 05:44:16;;;;;;;11.20;10.00;;;;;;;-1.00;100.00;100129.44;5048439;28;20025;-65
2023/01/19 05:46:41;;;;;;;11.07;9.97;;;;;;;-1.01;100.00;100128.56;5048242;28;20025;-64
2023/01/19 05:49:06;;;;;;;12.93;11.13;;;;;;;-0.99;100.00;100129.56;5046994;28;20009;-64
2023/01/19 05:51:44;;;;;;;14.00;12.20;;;;;;;-1.00;100.00;100126.91;5049393;28;20142;-64
2023/01/19 05:54:11;;;;;;;14.23;12.73;;;;;;;-1.01;100.00;100125.16;5047591;28;20443;-64
2023/01/19 05:56:38;;;;;;;14.60;13.00;;;;;;;-1.00;100.00;100139.63;5047017;28;20039;-64
2023/01/19 05:59:03;;;;;;;14.57;12.73;;;;;;;-0.97;100.00;100140.72;5047510;28;20029;-64
2023/01/19 06:01:28;;;;;;;14.60;13.10;;;;;;;-0.99;100.00;100138.88;5054167;28;20071;-64
2023/01/19 06:03:54;;;;;;;16.47;14.00;;;;;;;-0.97;100.00;100147.47;5054309;28;20491;-64
2023/01/19 06:06:19;;;;;;;16.17;14.47;;;;;;;-0.98;100.00;100145.72;5046591;28;20087;-64
2023/01/19 06:08:44;;;;;;;16.77;14.93;;;;;;;-0.97;100.00;100144.91;5047583;28;20033;-64
2023/01/19 06:11:10;;;;;;;17.60;14.40;;;;;;;-0.97;100.00;100150.91;5055137;28;20107;-64
2023/01/19 06:13:38;;;;;;;17.07;14.47;;;;;;;-0.98;100.00;100151.69;5049777;28;20116;-64
2023/01/19 06:16:04;;;;;;;19.47;15.00;;;;;;;-0.94;100.00;100146.81;5049001;28;20532;-64
2023/01/19 06:18:30;;;;;;;19.57;15.90;;;;;;;-0.95;100.00;100145.91;5047248;28;20035;-64
2023/01/19 06:20:57;;;;;;;15.97;14.27;;;;;;;-0.96;100.00;100149.25;5049808;28;20465;-64
2023/01/19 06:23:29;;;;;;;18.13;15.23;;;;;;;-0.95;100.00;100157.78;5050729;28;20041;-65
2023/01/19 06:25:55;;;;;;;18.63;14.97;;;;;;;-0.95;100.00;100160.31;5052496;28;20149;-64
2023/01/19 06:28:21;;;;;;;19.23;15.73;;;;;;;-0.96;100.00;100156.88;5048246;28;20081;-64
2023/01/19 06:30:50;;;;;;;17.03;14.90;;;;;;;-0.95;100.00;100170.50;5057387;28;20112;-65
2023/01/19 06:33:17;;;;;;;18.50;16.57;;;;;;;-0.96;100.00;100172.13;5046607;28;20401;-65
2023/01/19 06:35:47;;;;;;;18.83;16.77;;;;;;;-0.94;100.00;100177.31;5050825;28;20036;-64
2023/01/19 06:38:13;;;;;;;21.83;18.57;;;;;;;-0.93;100.00;100179.09;5048092;28;20029;-64
2023/01/19 06:40:39;;;;;;;22.87;20.17;;;;;;;-0.91;100.00;100185.16;5051014;28;20295;-64
2023/01/19 06:43:05;;;;;;;22.97;20.63;;;;;;;-0.91;100.00;100186.06;5051557;28;20043;-64
2023/01/19 06:45:30;;;;;;;25.20;22.67;;;;;;;-0.89;100.00;100186.16;5048133;28;20532;-65
2023/01/19 06:47:56;;;;;;;24.60;22.03;;;;;;;-0.89;100.00;100191.25;5046096;28;20112;-64
2023/01/19 06:50:21;;;;;;;27.17;24.27;;;;;;;-0.87;100.00;100184.59;5045279;28;20513;-64
2023/01/19 06:52:51;;;;;;;27.93;24.93;;;;;;;-0.87;100.00;100197.31;5047715;28;20024;-64
2023/01/19 06:55:16;;;;;;;27.80;24.90;;;;;;;-0.87;100.00;100202.41;5047783;28;20443;-64
2023/01/19 06:57:43;;;;;;;30.67;27.50;;;;;;;-0.89;100.00;100197.22;5047971;28;20244;-64
2023/01/19 07:00:10;;;;;;;32.17;29.00;;;;;;;-0.89;100.00;100209.06;5044652;28;20130;-64
2023/01/19 07:02:36;;;;;;;35.27;29.63;;;;;;;-0.88;100.00;100221.00;5049785;28;20028;-64
2023/01/19 07:05:01;;;;;;;35.80;30.70;;;;;;;-0.84;100.00;100210.25;5046442;28;20021;-64
2023/01/19 07:07:27;;;;;;;34.80;31.10;;;;;;;-0.84;100.00;100210.25;5046907;28;20021;-64
2023/01/19 07:09:52;;;;;;;36.80;32.07;;;;;;;-0.80;100.00;100218.97;5060220;28;20028;-64
2023/01/19 07:12:17;;;;;;;34.80;31.20;;;;;;;-0.80;100.00;100230.03;5062093;28;20029;-64
2023/01/19 07:14:43;;;;;;;40.73;32.37;;;;;;;-0.80;100.00;100219.88;5070045;28;20020;-64
2023/01/19 07:17:09;;;;;;;35.57;31.87;;;;;;;-0.81;100.00;100223.16;5051555;28;20479;-65
2023/01/19 07:19:35;;;;;;;35.43;31.23;;;;;;;-0.81;100.00;100235.88;5050799;28;20032;-65
2023/01/19 07:22:02;;;;;;;35.17;31.10;;;;;;;-0.80;100.00;100231.69;5048734;28;20017;-65
2023/01/19 07:24:29;;;;;;;35.57;31.87;;;;;;;-0.76;100.00;100233.69;5055124;28;20098;-65
2023/01/19 07:26:54;;;;;;;34.57;30.87;;;;;;;-0.75;100.00;100238.88;5049057;28;20032;-65
2023/01/19 07:29:20;;;;;;;36.20;31.43;;;;;;;-0.74;100.00;100238.06;5046038;28;20070;-65
2023/01/19 07:31:47;;;;;;;37.67;31.50;;;;;;;-0.71;100.00;100233.97;5049612;28;20033;-65
2023/01/19 07:34:12;;;;;;;41.40;33.77;;;;;;;-0.68;100.00;100249.44;5050139;28;20059;-65
2023/01/19 07:36:38;;;;;;;41.70;33.50;;;;;;;-0.70;100.00;100253.59;5054386;28;20029;-65
2023/01/19 07:39:03;;;;;;;36.43;32.27;;;;;;;-0.71;100.00;100252.69;5049162;28;20033;-65
2023/01/19 07:41:28;;;;;;;40.17;33.20;;;;;;;-0.65;100.00;100255.63;5049557;28;20381;-65
2023/01/19 07:43:53;;;;;;;42.97;35.13;;;;;;;-0.63;100.00;100260.84;5051989;28;20032;-65
2023/01/19 07:46:19;;;;;;;43.87;35.27;;;;;;;-0.65;100.00;100259.88;5049406;28;20029;-65
2023/01/19 07:48:46;;;;;;;39.50;33.60;;;;;;;-0.66;100.00;100263.16;5057953;28;20103;-64
2023/01/19 07:51:16;;;;;;;41.43;35.90;;;;;;;-0.67;100.00;100275.03;5048263;28;20441;-64
2023/01/19 07:53:42;;;;;;;41.08;33.72;;;;;;;-0.66;100.00;100275.91;5056644;28;20989;-64
2023/01/19 07:56:07;;;;;;;40.67;33.50;;;;;;;-0.65;100.00;100280.22;5047306;28;20020;-64
2023/01/19 07:58:33;;;;;;;44.83;34.27;;;;;;;-0.67;100.00;100275.03;5050070;28;20029;-64
2023/01/19 08:00:58;;;;;;;43.70;34.30;;;;;;;-0.67;100.00;100279.25;5049542;28;20033;-64
2023/01/19 08:03:23;;;;;;;40.90;32.43;;;;;;;-0.68;100.00;100278.34;5047134;28;20074;-64
2023/01/19 08:05:51;;;;;;;41.17;33.57;;;;;;;-0.68;100.00;100285.09;5050377;28;20055;-64
2023/01/19 08:08:17;;;;;;;40.10;31.97;;;;;;;-0.69;100.00;100289.31;5055234;28;20036;-64
2023/01/19 08:10:42;;;;;;;42.00;32.47;;;;;;;-0.66;100.00;100296.25;5055262;28;20031;-64
2023/01/19 08:13:07;;;;;;;41.93;33.13;;;;;;;-0.66;100.00;100298.81;5047110;28;20043;-64
2023/01/19 08:15:33;;;;;;;45.07;32.77;;;;;;;-0.69;100.00;100299.50;5048472;28;20055;-64
2023/01/19 08:18:04;;;;;;;42.90;33.37;;;;;;;-0.69;100.00;100296.06;5053438;28;20032;-64
2023/01/19 08:20:29;;;;;;;;;;;;;;;-0.66;100.00;100306.44;5047682;28;20063;-64
2023/01/19 08:23:01;;;;;;;45.20;31.77;;;;;;;-0.66;100.00;100301.34;5050040;28;19924;-64
2023/01/19 08:25:34;;;;;;;45.83;31.73;;;;;;;-0.64;100.00;100304.88;5050345;28;20021;-64
2023/01/19 08:28:01;;;;;;;42.27;30.67;;;;;;;-0.66;100.00;100321.72;5048179;28;20040;-64
2023/01/19 08:30:26;;;;;;;51.20;31.93;;;;;;;-0.66;100.00;100329.34;5053179;28;20013;-64
2023/01/19 08:32:53;;;;;;;45.90;32.50;;;;;;;-0.66;100.00;100327.69;5053306;28;20480;-64
2023/01/19 08:35:19;;;;;;;51.47;33.97;;;;;;;-0.63;100.00;100327.03;5051158;28;20020;-64
2023/01/19 08:37:45;;;;;;;40.50;31.30;;;;;;;-0.62;100.00;100344.97;5059737;28;20020;-64
2023/01/19 08:40:10;;;;;;;47.53;32.03;;;;;;;-0.59;100.00;100341.72;5057705;28;20377;-64
2023/01/19 08:42:36;;;;;;;46.53;32.00;;;;;;;-0.57;100.00;100347.81;5055865;28;20071;-64
2023/01/19 08:45:01;;;;;;;51.63;30.93;;;;;;;-0.54;100.00;100342.91;5054450;28;20043;-64
2023/01/19 08:47:27;;;;;;;44.83;30.73;;;;;;;-0.53;100.00;100359.97;5050948;28;20017;-64
2023/01/19 08:49:52;;;;;;;48.13;31.60;;;;;;;-0.56;100.00;100359.78;5052679;28;20055;-64
2023/01/19 08:52:17;;;;;;;44.50;30.20;;;;;;;-0.57;100.00;100358.00;5050544;28;20056;-64
2023/01/19 08:54:42;;;;;;;50.43;31.90;;;;;;;-0.57;100.00;100363.09;5048249;28;20047;-64
2023/01/19 08:57:08;;;;;;;50.97;31.37;;;;;;;-0.56;100.00;100358.88;5047221;28;20036;-64
2023/01/19 08:59:33;;;;;;;50.60;34.23;;;;;;;-0.57;100.00;100360.53;5051224;28;20625;-64
2023/01/19 09:01:58;;;;;;;51.00;30.70;;;;;;;-0.56;100.00;100369.97;5055351;28;20039;-64
2023/01/19 09:04:23;;;;;;;53.80;31.93;;;;;;;-0.56;100.00;100375.06;5053559;28;20469;-64
2023/01/19 09:06:49;;;;;;;55.40;33.03;;;;;;;-0.54;100.00;100380.25;5052511;28;20070;-64
2023/01/19 09:09:14;;;;;;;50.23;30.93;;;;;;;-0.53;100.00;100379.47;5052609;28;20047;-64
2023/01/19 09:11:39;;;;;;;49.63;31.10;;;;;;;-0.47;100.00;100384.09;5049295;28;20047;-64
2023/01/19 09:14:05;;;;;;;54.60;32.87;;;;;;;-0.42;100.00;100378.56;5051317;28;20027;-64
2023/01/19 09:16:30;;;;;;;54.90;33.17;;;;;;;-0.38;100.00;100374.56;5054026;28;20035;-67
2023/01/19 09:18:55;;;;;;;55.77;33.20;;;;;;;-0.31;100.00;100381.84;5055369;28;20025;-64
2023/01/19 09:21:21;;;;;;;55.43;32.73;;;;;;;-0.23;100.00;100379.81;5048250;28;20017;-65
2023/01/19 09:23:48;;;;;;;59.10;35.03;;;;;;;-0.21;100.00;100382.44;5054931;28;20074;-65
2023/01/19 09:26:13;;;;;;;56.10;34.40;;;;;;;-0.18;100.00;100390.31;5047797;28;20039;-65
2023/01/19 09:28:38;;;;;;;50.97;32.33;;;;;;;-0.20;100.00;100384.22;5047229;28;20032;-65
2023/01/19 09:31:06;;;;;;;54.37;34.10;;;;;;;-0.23;100.00;100390.00;5054312;28;20033;-65
2023/01/19 09:33:31;;;;;;;55.30;33.70;;;;;;;-0.22;100.00;100390.88;5048242;28;20021;-65
2023/01/19 09:35:57;;;;;;;53.60;33.37;;;;;;;-0.17;100.00;100390.41;5049727;28;20031;-65
2023/01/19 09:38:23;;;;;;;50.23;33.23;;;;;;;-0.13;100.00;100388.97;5054338;28;20061;-65
2023/01/19 09:40:52;;;;;;;57.47;32.57;;;;;;;-0.08;100.00;100395.25;5061890;28;20028;-65
2023/01/19 09:43:40;;;;;;;46.80;32.37;;;;;;;-0.06;100.00;100393.69;5048812;28;20031;-65
2023/01/19 09:46:14;;;;;;;50.37;32.47;;;;;;;-0.01;100.00;100402.53;5047320;28;20021;-65
2023/01/19 09:48:53;;;;;;;46.57;31.00;;;;;;;0.07;100.00;100405.59;5051775;28;20051;-65
2023/01/19 09:51:24;;;;;;;48.63;32.40;;;;;;;0.11;100.00;100411.78;5055571;28;20072;-65
2023/01/19 09:53:54;;;;;;;;;;;;;;;0.15;100.00;100410.31;5055561;28;20477;-65
2023/01/19 09:56:20;;;;;;;42.43;27.90;;;;;;;0.21;100.00;100419.28;5048048;28;19913;-65
2023/01/19 09:58:47;;;;;;;44.53;29.13;;;;;;;0.22;100.00;100418.50;5051973;28;20040;-65
2023/01/19 10:01:39;;;;;;;46.77;29.57;;;;;;;0.30;100.00;100413.91;5047391;28;20484;-65
2023/01/19 10:04:25;;;;;;;43.27;28.07;;;;;;;0.38;100.00;100424.59;5045956;28;20039;-65
2023/01/19 10:06:58;;;;;;;42.77;28.93;;;;;;;0.44;100.00;100419.94;5056799;28;20035;-65
2023/01/19 10:09:32;;;;;;;44.27;26.60;;;;;;;0.49;100.00;100425.31;5047974;28;20028;-65
2023/01/19 10:12:08;;;;;;;38.20;27.67;;;;;;;0.53;100.00;100431.50;5047502;28;20110;-65
2023/01/19 10:15:18;;;;;;;33.43;24.83;;;;;;;0.57;100.00;100433.50;5046384;28;20021;-65
2023/01/19 10:18:21;;;;;;;34.23;24.57;;;;;;;0.63;100.00;100438.97;5048933;28;20400;-65
2023/01/19 10:20:55;;;;;;;37.87;25.13;;;;;;;0.66;100.00;100433.22;5048884;28;20032;-65
2023/01/19 10:23:31;;;;;;;35.83;24.27;;;;;;;0.65;100.00;100436.56;5051665;28;20025;-65
2023/01/19 10:26:03;;;;;;;34.00;23.77;;;;;;;0.64;100.00;100434.78;5050572;28;20158;-65
2023/01/19 10:28:29;;;;;;;33.00;24.57;;;;;;;0.67;100.00;100440.97;5046028;28;20025;-65
2023/01/19 10:30:54;;;;;;;29.93;22.33;;;;;;;0.70;100.00;100441.16;5047204;28;20021;-65
2023/01/19 10:33:20;;;;;;;30.27;23.47;;;;;;;0.74;100.00;100431.19;5054025;28;20024;-65
2023/01/19 10:35:47;;;;;;;31.53;22.40;;;;;;;0.79;100.00;100438.31;5050519;28;20483;-65
2023/01/19 10:38:14;;;;;;;28.80;21.10;;;;;;;0.84;100.00;100438.63;5052499;28;20417;-65
2023/01/19 10:40:51;;;;;;;28.30;20.00;;;;;;;0.84;100.00;100443.75;5048671;28;20036;-65
2023/01/19 10:43:33;;;;;;;24.00;19.70;;;;;;;0.87;100.00;100446.47;5047321;28;20100;-65
2023/01/19 10:46:00;;;;;;;30.33;20.33;;;;;;;0.91;100.00;100445.03;5047768;28;20145;-65
2023/01/19 10:48:35;;;;;;;28.50;19.53;;;;;;;0.93;100.00;100446.00;5047086;28;20521;-65
2023/01/19 10:51:02;;;;;;;25.83;19.00;;;;;;;0.93;100.00;100448.56;5046182;28;20045;-65
2023/01/19 10:53:27;;;;;;;25.13;18.03;;;;;;;0.95;100.00;100447.84;5060472;28;20029;-65
2023/01/19 10:56:16;;;;;;;26.10;18.77;;;;;;;0.97;100.00;100441.97;5046446;28;20085;-65
2023/01/19 10:58:41;;;;;;;24.40;18.47;;;;;;;1.02;100.00;100443.16;5046916;28;20502;-65
2023/01/19 11:01:22;;;;;;;29.20;18.20;;;;;;;1.05;100.00;100443.34;5049542;28;20025;-65
2023/01/19 11:03:48;;;;;;;16.90;13.25;;;;;;;1.08;100.00;100446.09;5046751;28;20516;-65
2023/01/19 11:06:14;;;;;;;29.43;17.97;;;;;;;1.09;100.00;100440.22;5049600;28;20037;-65
2023/01/19 11:08:40;;;;;;;25.87;17.80;;;;;;;1.12;100.00;100440.41;5050288;28;20068;-64
2023/01/19 11:11:07;;;;;;;26.53;18.70;;;;;;;1.12;100.00;100435.31;5049699;28;20155;-65
2023/01/19 11:13:33;;;;;;;22.77;18.10;;;;;;;1.13;100.00;100442.19;5051418;28;20535;-65
2023/01/19 11:16:05;;;;;;;33.47;17.87;;;;;;;1.16;100.00;100437.28;5050305;28;20053;-64
2023/01/19 11:18:33;;;;;;;26.77;19.47;;;;;;;1.21;100.00;100445.22;5052257;28;20020;-64
2023/01/19 11:21:02;;;;;;;26.47;18.57;;;;;;;1.24;100.00;100439.44;5050544;28;20056;-65